sensor_id;sensor_type;location;lat;lon;timestamp;pressure;altitude;pressure_sealevel;temperature
42197;BMP280;27866;48.146;17.098;2022-10-31T00:03:40;100289.31;;;15.91
42197;BMP280;27866;48.146;17.098;2022-10-31T00:07:53;100291.78;;;15.93
42197;BMP280;27866;48.146;17.098;2022-10-31T00:12:04;100287.88;;;15.87
42197;BMP280;27866;48.146;17.098;2022-10-31T00:16:23;100298.34;;;15.87
42197;BMP280;27866;48.146;17.098;2022-10-31T00:20:34;100293.00;;;15.78
42197;BMP280;27866;48.146;17.098;2022-10-31T00:24:45;100302.03;;;15.74
42197;BMP280;27866;48.146;17.098;2022-10-31T00:28:58;100294.25;;;15.64
42197;BMP280;27866;48.146;17.098;2022-10-31T00:33:09;100289.47;;;15.68
42197;BMP280;27866;48.146;17.098;2022-10-31T00:37:21;100295.97;;;15.74
42197;BMP280;27866;48.146;17.098;2022-10-31T00:41:32;100303.47;;;15.67
42197;BMP280;27866;48.146;17.098;2022-10-31T00:45:43;100294.16;;;15.54
42197;BMP280;27866;48.146;17.098;2022-10-31T00:49:54;100295.97;;;15.43
42197;BMP280;27866;48.146;17.098;2022-10-31T00:54:06;100290.47;;;15.46
42197;BMP280;27866;48.146;17.098;2022-10-31T00:58:17;100280.97;;;15.56
42197;BMP280;27866;48.146;17.098;2022-10-31T01:02:28;100277.03;;;15.61
42197;BMP280;27866;48.146;17.098;2022-10-31T01:06:39;100276.91;;;15.63
42197;BMP280;27866;48.146;17.098;2022-10-31T01:11:19;100287.47;;;15.61
42197;BMP280;27866;48.146;17.098;2022-10-31T01:15:30;100293.75;;;15.59
42197;BMP280;27866;48.146;17.098;2022-10-31T01:19:41;100294.25;;;15.53
42197;BMP280;27866;48.146;17.098;2022-10-31T01:23:56;100282.38;;;15.49
42197;BMP280;27866;48.146;17.098;2022-10-31T01:28:08;100274.25;;;15.43
42197;BMP280;27866;48.146;17.098;2022-10-31T01:32:19;100273.00;;;15.57
42197;BMP280;27866;48.146;17.098;2022-10-31T01:36:37;100280.91;;;15.66
42197;BMP280;27866;48.146;17.098;2022-10-31T01:40:50;100272.44;;;15.54
42197;BMP280;27866;48.146;17.098;2022-10-31T01:45:02;100274.56;;;15.49
42197;BMP280;27866;48.146;17.098;2022-10-31T01:53:48;100269.06;;;15.63
42197;BMP280;27866;48.146;17.098;2022-10-31T01:58:22;100266.03;;;15.47
42197;BMP280;27866;48.146;17.098;2022-10-31T02:02:34;100261.28;;;15.52
42197;BMP280;27866;48.146;17.098;2022-10-31T02:06:51;100259.00;;;15.58
42197;BMP280;27866;48.146;17.098;2022-10-31T02:11:04;100255.22;;;15.62
42197;BMP280;27866;48.146;17.098;2022-10-31T02:15:16;100257.41;;;15.66
42197;BMP280;27866;48.146;17.098;2022-10-31T02:24:33;100257.97;;;15.50
42197;BMP280;27866;48.146;17.098;2022-10-31T02:33:53;100256.50;;;15.57
42197;BMP280;27866;48.146;17.098;2022-10-31T02:38:23;100260.31;;;15.53
42197;BMP280;27866;48.146;17.098;2022-10-31T02:43:12;100266.72;;;15.49
42197;BMP280;27866;48.146;17.098;2022-10-31T02:47:34;100269.69;;;15.55
42197;BMP280;27866;48.146;17.098;2022-10-31T02:51:47;100265.75;;;15.61
42197;BMP280;27866;48.146;17.098;2022-10-31T02:56:12;100267.44;;;15.62
42197;BMP280;27866;48.146;17.098;2022-10-31T03:00:23;100272.28;;;15.66
42197;BMP280;27866;48.146;17.098;2022-10-31T03:18:34;100279.63;;;15.61
42197;BMP280;27866;48.146;17.098;2022-10-31T03:22:48;100285.00;;;15.60
42197;BMP280;27866;48.146;17.098;2022-10-31T03:27:00;100278.56;;;15.64
42197;BMP280;27866;48.146;17.098;2022-10-31T03:31:17;100287.19;;;15.75
42197;BMP280;27866;48.146;17.098;2022-10-31T03:35:30;100283.53;;;15.77
42197;BMP280;27866;48.146;17.098;2022-10-31T03:39:46;100286.34;;;15.74
42197;BMP280;27866;48.146;17.098;2022-10-31T03:44:03;100290.50;;;15.77
42197;BMP280;27866;48.146;17.098;2022-10-31T03:48:17;100282.56;;;15.78
42197;BMP280;27866;48.146;17.098;2022-10-31T03:52:43;100285.44;;;15.75
42197;BMP280;27866;48.146;17.098;2022-10-31T03:57:52;100282.19;;;15.72
42197;BMP280;27866;48.146;17.098;2022-10-31T04:02:24;100281.63;;;15.68
42197;BMP280;27866;48.146;17.098;2022-10-31T04:06:52;100283.53;;;15.66
42197;BMP280;27866;48.146;17.098;2022-10-31T04:11:24;100294.06;;;15.76
42197;BMP280;27866;48.146;17.098;2022-10-31T04:16:11;100296.44;;;15.79
42197;BMP280;27866;48.146;17.098;2022-10-31T04:20:40;100289.19;;;15.82
42197;BMP280;27866;48.146;17.098;2022-10-31T04:25:08;100289.78;;;15.85
42197;BMP280;27866;48.146;17.098;2022-10-31T04:29:37;100295.25;;;15.82
42197;BMP280;27866;48.146;17.098;2022-10-31T04:34:03;100292.50;;;15.84
42197;BMP280;27866;48.146;17.098;2022-10-31T04:38:30;100290.16;;;15.70
42197;BMP280;27866;48.146;17.098;2022-10-31T04:42:56;100298.00;;;15.70
42197;BMP280;27866;48.146;17.098;2022-10-31T04:47:22;100296.38;;;15.69
42197;BMP280;27866;48.146;17.098;2022-10-31T04:51:48;100299.63;;;15.82
42197;BMP280;27866;48.146;17.098;2022-10-31T04:56:15;100294.09;;;15.86
42197;BMP280;27866;48.146;17.098;2022-10-31T05:00:44;100299.06;;;15.79
42197;BMP280;27866;48.146;17.098;2022-10-31T05:05:13;100298.97;;;15.69
42197;BMP280;27866;48.146;17.098;2022-10-31T05:09:40;100309.19;;;15.62
42197;BMP280;27866;48.146;17.098;2022-10-31T05:14:06;100313.44;;;15.63
42197;BMP280;27866;48.146;17.098;2022-10-31T05:18:51;100312.03;;;15.69
42197;BMP280;27866;48.146;17.098;2022-10-31T05:23:43;100318.19;;;15.79
42197;BMP280;27866;48.146;17.098;2022-10-31T05:28:09;100306.19;;;15.77
42197;BMP280;27866;48.146;17.098;2022-10-31T05:32:48;100307.50;;;15.71
42197;BMP280;27866;48.146;17.098;2022-10-31T05:37:38;100310.22;;;15.70
42197;BMP280;27866;48.146;17.098;2022-10-31T05:42:04;100321.28;;;15.73
42197;BMP280;27866;48.146;17.098;2022-10-31T05:46:30;100327.69;;;15.69
42197;BMP280;27866;48.146;17.098;2022-10-31T05:51:15;100328.28;;;15.73
42197;BMP280;27866;48.146;17.098;2022-10-31T05:55:43;100322.97;;;15.64
42197;BMP280;27866;48.146;17.098;2022-10-31T06:00:14;100333.25;;;15.76
42197;BMP280;27866;48.146;17.098;2022-10-31T06:04:47;100328.88;;;15.87
42197;BMP280;27866;48.146;17.098;2022-10-31T06:09:13;100331.66;;;15.94
42197;BMP280;27866;48.146;17.098;2022-10-31T06:13:39;100330.38;;;16.00
42197;BMP280;27866;48.146;17.098;2022-10-31T06:18:15;100336.41;;;16.00
42197;BMP280;27866;48.146;17.098;2022-10-31T06:22:47;100337.59;;;15.96
42197;BMP280;27866;48.146;17.098;2022-10-31T06:27:17;100344.03;;;15.93
42197;BMP280;27866;48.146;17.098;2022-10-31T06:31:46;100339.00;;;16.00
42197;BMP280;27866;48.146;17.098;2022-10-31T06:36:16;100345.13;;;15.90
42197;BMP280;27866;48.146;17.098;2022-10-31T06:40:46;100347.16;;;15.87
42197;BMP280;27866;48.146;17.098;2022-10-31T06:45:24;100352.38;;;15.87
42197;BMP280;27866;48.146;17.098;2022-10-31T06:50:13;100361.28;;;15.84
42197;BMP280;27866;48.146;17.098;2022-10-31T06:54:42;100366.81;;;15.91
42197;BMP280;27866;48.146;17.098;2022-10-31T06:59:12;100371.25;;;15.90
42197;BMP280;27866;48.146;17.098;2022-10-31T07:04:00;100368.25;;;15.94
42197;BMP280;27866;48.146;17.098;2022-10-31T07:08:34;100375.13;;;15.95
42197;BMP280;27866;48.146;17.098;2022-10-31T07:13:06;100385.69;;;15.83
42197;BMP280;27866;48.146;17.098;2022-10-31T07:17:40;100387.84;;;15.89
42197;BMP280;27866;48.146;17.098;2022-10-31T07:22:11;100386.06;;;15.90
42197;BMP280;27866;48.146;17.098;2022-10-31T07:26:42;100383.69;;;15.97
42197;BMP280;27866;48.146;17.098;2022-10-31T07:31:13;100385.53;;;16.06
42197;BMP280;27866;48.146;17.098;2022-10-31T07:35:44;100391.81;;;16.14
42197;BMP280;27866;48.146;17.098;2022-10-31T07:40:16;100390.84;;;16.15
42197;BMP280;27866;48.146;17.098;2022-10-31T07:44:47;100386.94;;;16.21
42197;BMP280;27866;48.146;17.098;2022-10-31T07:49:36;100381.72;;;16.21
42197;BMP280;27866;48.146;17.098;2022-10-31T07:54:24;100379.31;;;16.28
42197;BMP280;27866;48.146;17.098;2022-10-31T07:58:54;100386.44;;;16.26
42197;BMP280;27866;48.146;17.098;2022-10-31T08:03:24;100383.94;;;16.25
42197;BMP280;27866;48.146;17.098;2022-10-31T08:08:14;100382.25;;;16.35
42197;BMP280;27866;48.146;17.098;2022-10-31T08:12:44;100392.66;;;16.45
42197;BMP280;27866;48.146;17.098;2022-10-31T08:17:14;100384.84;;;16.35
42197;BMP280;27866;48.146;17.098;2022-10-31T08:21:53;100384.69;;;16.47
42197;BMP280;27866;48.146;17.098;2022-10-31T08:26:24;100391.91;;;16.74
42197;BMP280;27866;48.146;17.098;2022-10-31T08:30:58;100389.13;;;16.86
42197;BMP280;27866;48.146;17.098;2022-10-31T08:35:43;100379.25;;;16.89
42197;BMP280;27866;48.146;17.098;2022-10-31T08:40:36;100385.53;;;16.67
42197;BMP280;27866;48.146;17.098;2022-10-31T08:45:06;100384.00;;;16.65
42197;BMP280;27866;48.146;17.098;2022-10-31T08:49:37;100384.00;;;16.65
42197;BMP280;27866;48.146;17.098;2022-10-31T08:54:06;100383.22;;;16.53
42197;BMP280;27866;48.146;17.098;2022-10-31T08:58:36;100377.75;;;16.56
42197;BMP280;27866;48.146;17.098;2022-10-31T09:03:15;100387.56;;;16.64
42197;BMP280;27866;48.146;17.098;2022-10-31T09:07:46;100383.19;;;16.64
42197;BMP280;27866;48.146;17.098;2022-10-31T09:12:15;100388.31;;;16.55
42197;BMP280;27866;48.146;17.098;2022-10-31T09:17:04;100378.47;;;16.58
42197;BMP280;27866;48.146;17.098;2022-10-31T09:21:53;100394.72;;;16.62
42197;BMP280;27866;48.146;17.098;2022-10-31T09:26:23;100393.13;;;16.70
42197;BMP280;27866;48.146;17.098;2022-10-31T09:31:04;100393.50;;;16.66
42197;BMP280;27866;48.146;17.098;2022-10-31T09:35:58;100391.03;;;16.64
42197;BMP280;27866;48.146;17.098;2022-10-31T09:40:41;100388.84;;;16.69
42197;BMP280;27866;48.146;17.098;2022-10-31T09:55:45;100383.34;;;16.82
42197;BMP280;27866;48.146;17.098;2022-10-31T10:00:21;100389.56;;;16.71
42197;BMP280;27866;48.146;17.098;2022-10-31T10:05:02;100391.19;;;16.72
42197;BMP280;27866;48.146;17.098;2022-10-31T10:09:38;100391.66;;;16.77
42197;BMP280;27866;48.146;17.098;2022-10-31T10:15:20;100381.91;;;16.79
42197;BMP280;27866;48.146;17.098;2022-10-31T10:34:31;100369.66;;;16.99
42197;BMP280;27866;48.146;17.098;2022-10-31T10:39:11;100372.84;;;17.02
42197;BMP280;27866;48.146;17.098;2022-10-31T10:43:44;100366.72;;;16.93
42197;BMP280;27866;48.146;17.098;2022-10-31T10:48:56;100362.84;;;16.87
42197;BMP280;27866;48.146;17.098;2022-10-31T10:53:44;100360.34;;;17.06
42197;BMP280;27866;48.146;17.098;2022-10-31T10:58:29;100350.50;;;16.98
42197;BMP280;27866;48.146;17.098;2022-10-31T11:02:59;100348.53;;;16.91
42197;BMP280;27866;48.146;17.098;2022-10-31T11:07:39;100356.66;;;16.88
42197;BMP280;27866;48.146;17.098;2022-10-31T11:12:19;100357.19;;;16.82
42197;BMP280;27866;48.146;17.098;2022-10-31T11:17:06;100352.28;;;16.89
42197;BMP280;27866;48.146;17.098;2022-10-31T11:21:38;100356.78;;;17.07
42197;BMP280;27866;48.146;17.098;2022-10-31T11:26:19;100347.19;;;17.16
42197;BMP280;27866;48.146;17.098;2022-10-31T11:30:57;100341.34;;;17.04
42197;BMP280;27866;48.146;17.098;2022-10-31T11:35:27;100346.28;;;17.07
42197;BMP280;27866;48.146;17.098;2022-10-31T11:40:04;100346.28;;;17.07
42197;BMP280;27866;48.146;17.098;2022-10-31T11:44:34;100341.53;;;17.11
42197;BMP280;27866;48.146;17.098;2022-10-31T11:49:05;100329.75;;;17.06
42197;BMP280;27866;48.146;17.098;2022-10-31T11:53:52;100328.34;;;17.02
42197;BMP280;27866;48.146;17.098;2022-10-31T11:58:26;100324.28;;;17.09
42197;BMP280;27866;48.146;17.098;2022-10-31T12:07:53;100322.84;;;16.96
42197;BMP280;27866;48.146;17.098;2022-10-31T12:27:28;100314.06;;;17.06
42197;BMP280;27866;48.146;17.098;2022-10-31T12:37:25;100314.50;;;16.82
42197;BMP280;27866;48.146;17.098;2022-10-31T12:52:01;100313.53;;;16.83
42197;BMP280;27866;48.146;17.098;2022-10-31T12:56:51;100307.81;;;16.89
42197;BMP280;27866;48.146;17.098;2022-10-31T13:06:09;100302.00;;;16.95
42197;BMP280;27866;48.146;17.098;2022-10-31T13:15:32;100294.16;;;16.95
42197;BMP280;27866;48.146;17.098;2022-10-31T13:25:21;100296.78;;;16.75
42197;BMP280;27866;48.146;17.098;2022-10-31T13:30:04;100283.66;;;16.85
42197;BMP280;27866;48.146;17.098;2022-10-31T13:34:42;100290.59;;;16.76
42197;BMP280;27866;48.146;17.098;2022-10-31T13:44:24;100283.72;;;16.75
42197;BMP280;27866;48.146;17.098;2022-10-31T13:48:55;100288.63;;;16.68
42197;BMP280;27866;48.146;17.098;2022-10-31T13:58:27;100278.88;;;16.70
42197;BMP280;27866;48.146;17.098;2022-10-31T14:02:57;100272.75;;;16.61
42197;BMP280;27866;48.146;17.098;2022-10-31T14:07:28;100265.84;;;16.51
42197;BMP280;27866;48.146;17.098;2022-10-31T14:12:09;100263.78;;;16.54
42197;BMP280;27866;48.146;17.098;2022-10-31T14:16:43;100263.09;;;16.52
42197;BMP280;27866;48.146;17.098;2022-10-31T14:21:31;100258.50;;;16.45
42197;BMP280;27866;48.146;17.098;2022-10-31T14:30:59;100264.09;;;16.40
42197;BMP280;27866;48.146;17.098;2022-10-31T14:35:53;100257.22;;;16.39
42197;BMP280;27866;48.146;17.098;2022-10-31T14:55:27;100258.44;;;16.16
42197;BMP280;27866;48.146;17.098;2022-10-31T15:00:05;100252.06;;;16.09
42197;BMP280;27866;48.146;17.098;2022-10-31T15:04:36;100247.78;;;16.08
42197;BMP280;27866;48.146;17.098;2022-10-31T15:09:26;100243.13;;;16.11
42197;BMP280;27866;48.146;17.098;2022-10-31T15:13:58;100249.69;;;16.06
42197;BMP280;27866;48.146;17.098;2022-10-31T15:18:29;100252.81;;;16.00
42197;BMP280;27866;48.146;17.098;2022-10-31T15:22:59;100246.16;;;15.96
42197;BMP280;27866;48.146;17.098;2022-10-31T15:27:29;100252.75;;;15.80
42197;BMP280;27866;48.146;17.098;2022-10-31T15:32:22;100253.75;;;15.69
42197;BMP280;27866;48.146;17.098;2022-10-31T15:36:52;100260.13;;;15.86
42197;BMP280;27866;48.146;17.098;2022-10-31T15:41:51;100258.22;;;15.88
42197;BMP280;27866;48.146;17.098;2022-10-31T15:46:22;100266.13;;;15.97
42197;BMP280;27866;48.146;17.098;2022-10-31T15:50:55;100263.53;;;15.97
42197;BMP280;27866;48.146;17.098;2022-10-31T15:55:29;100260.91;;;15.97
42197;BMP280;27866;48.146;17.098;2022-10-31T15:59:45;100262.34;;;15.91
42197;BMP280;27866;48.146;17.098;2022-10-31T16:12:45;100260.19;;;15.95
42197;BMP280;27866;48.146;17.098;2022-10-31T16:16:58;100270.88;;;15.93
42197;BMP280;27866;48.146;17.098;2022-10-31T16:21:10;100269.13;;;15.82
42197;BMP280;27866;48.146;17.098;2022-10-31T16:25:37;100265.94;;;15.90
42197;BMP280;27866;48.146;17.098;2022-10-31T16:29:49;100261.78;;;15.87
42197;BMP280;27866;48.146;17.098;2022-10-31T16:34:18;100268.56;;;15.79
42197;BMP280;27866;48.146;17.098;2022-10-31T16:38:30;100275.41;;;15.80
42197;BMP280;27866;48.146;17.098;2022-10-31T16:42:42;100271.88;;;15.70
42197;BMP280;27866;48.146;17.098;2022-10-31T16:47:17;100282.59;;;15.67
42197;BMP280;27866;48.146;17.098;2022-10-31T16:51:28;100281.63;;;15.68
42197;BMP280;27866;48.146;17.098;2022-10-31T16:55:56;100279.72;;;15.70
42197;BMP280;27866;48.146;17.098;2022-10-31T17:00:12;100270.47;;;15.66
42197;BMP280;27866;48.146;17.098;2022-10-31T17:04:23;100280.00;;;15.67
42197;BMP280;27866;48.146;17.098;2022-10-31T17:08:34;100289.56;;;15.78
42197;BMP280;27866;48.146;17.098;2022-10-31T17:12:46;100291.34;;;15.77
42197;BMP280;27866;48.146;17.098;2022-10-31T17:16:58;100284.66;;;15.84
42197;BMP280;27866;48.146;17.098;2022-10-31T17:21:21;100282.06;;;15.84
42197;BMP280;27866;48.146;17.098;2022-10-31T17:25:33;100280.41;;;15.83
42197;BMP280;27866;48.146;17.098;2022-10-31T17:29:45;100275.19;;;15.83
42197;BMP280;27866;48.146;17.098;2022-10-31T17:33:58;100275.56;;;15.68
42197;BMP280;27866;48.146;17.098;2022-10-31T17:38:10;100281.13;;;15.74
42197;BMP280;27866;48.146;17.098;2022-10-31T17:42:21;100274.28;;;15.73
42197;BMP280;27866;48.146;17.098;2022-10-31T17:46:33;100282.25;;;15.61
42197;BMP280;27866;48.146;17.098;2022-10-31T17:50:44;100276.31;;;15.59
42197;BMP280;27866;48.146;17.098;2022-10-31T17:54:55;100274.41;;;15.61
42197;BMP280;27866;48.146;17.098;2022-10-31T17:59:06;100273.22;;;15.65
42197;BMP280;27866;48.146;17.098;2022-10-31T18:03:17;100276.41;;;15.68
42197;BMP280;27866;48.146;17.098;2022-10-31T18:07:28;100272.16;;;15.67
42197;BMP280;27866;48.146;17.098;2022-10-31T18:11:39;100273.34;;;15.64
42197;BMP280;27866;48.146;17.098;2022-10-31T18:15:50;100277.88;;;15.62
42197;BMP280;27866;48.146;17.098;2022-10-31T18:20:01;100271.53;;;15.75
42197;BMP280;27866;48.146;17.098;2022-10-31T18:24:13;100269.63;;;15.77
42197;BMP280;27866;48.146;17.098;2022-10-31T18:28:24;100259.66;;;15.71
42197;BMP280;27866;48.146;17.098;2022-10-31T18:32:35;100260.53;;;15.61
42197;BMP280;27866;48.146;17.098;2022-10-31T18:36:46;100266.66;;;15.70
42197;BMP280;27866;48.146;17.098;2022-10-31T18:40:58;100256.81;;;15.74
42197;BMP280;27866;48.146;17.098;2022-10-31T18:45:09;100268.72;;;15.67
42197;BMP280;27866;48.146;17.098;2022-10-31T18:49:20;100258.84;;;15.70
42197;BMP280;27866;48.146;17.098;2022-10-31T18:53:36;100261.31;;;15.72
42197;BMP280;27866;48.146;17.098;2022-10-31T18:57:47;100257.91;;;15.71
42197;BMP280;27866;48.146;17.098;2022-10-31T19:01:58;100261.72;;;15.67
42197;BMP280;27866;48.146;17.098;2022-10-31T19:06:09;100255.31;;;15.61
42197;BMP280;27866;48.146;17.098;2022-10-31T19:10:20;100248.16;;;15.73
42197;BMP280;27866;48.146;17.098;2022-10-31T19:14:32;100252.78;;;15.70
42197;BMP280;27866;48.146;17.098;2022-10-31T19:18:43;100247.44;;;15.71
42197;BMP280;27866;48.146;17.098;2022-10-31T19:22:54;100247.44;;;15.71
42197;BMP280;27866;48.146;17.098;2022-10-31T19:27:08;100243.88;;;15.72
42197;BMP280;27866;48.146;17.098;2022-10-31T19:31:20;100241.84;;;15.76
42197;BMP280;27866;48.146;17.098;2022-10-31T19:35:31;100239.00;;;15.68
42197;BMP280;27866;48.146;17.098;2022-10-31T19:39:42;100239.84;;;15.68
42197;BMP280;27866;48.146;17.098;2022-10-31T19:43:54;100234.41;;;15.61
42197;BMP280;27866;48.146;17.098;2022-10-31T19:48:05;100233.00;;;15.57
42197;BMP280;27866;48.146;17.098;2022-10-31T19:52:16;100235.88;;;15.54
42197;BMP280;27866;48.146;17.098;2022-10-31T19:56:27;100235.88;;;15.54
42197;BMP280;27866;48.146;17.098;2022-10-31T20:00:39;100236.66;;;15.65
42197;BMP280;27866;48.146;17.098;2022-10-31T20:04:50;100240.59;;;15.60
42197;BMP280;27866;48.146;17.098;2022-10-31T20:09:04;100241.75;;;15.66
42197;BMP280;27866;48.146;17.098;2022-10-31T20:13:17;100248.88;;;15.75
42197;BMP280;27866;48.146;17.098;2022-10-31T20:17:28;100244.44;;;15.76
42197;BMP280;27866;48.146;17.098;2022-10-31T20:21:40;100244.00;;;15.71
42197;BMP280;27866;48.146;17.098;2022-10-31T20:25:51;100232.66;;;15.61
42197;BMP280;27866;48.146;17.098;2022-10-31T20:30:02;100228.84;;;15.65
42197;BMP280;27866;48.146;17.098;2022-10-31T20:34:14;100231.81;;;15.61
42197;BMP280;27866;48.146;17.098;2022-10-31T20:38:25;100237.88;;;15.61
42197;BMP280;27866;48.146;17.098;2022-10-31T20:42:36;100231.22;;;15.57
42197;BMP280;27866;48.146;17.098;2022-10-31T20:46:48;100229.91;;;15.63
42197;BMP280;27866;48.146;17.098;2022-10-31T20:51:03;100235.38;;;15.60
42197;BMP280;27866;48.146;17.098;2022-10-31T20:55:15;100237.88;;;15.61
42197;BMP280;27866;48.146;17.098;2022-10-31T20:59:26;100230.88;;;15.62
42197;BMP280;27866;48.146;17.098;2022-10-31T21:03:38;100228.25;;;15.62
42197;BMP280;27866;48.146;17.098;2022-10-31T21:07:50;100229.91;;;15.63
42197;BMP280;27866;48.146;17.098;2022-10-31T21:12:01;100225.88;;;15.69
42197;BMP280;27866;48.146;17.098;2022-10-31T21:16:22;100222.69;;;15.66
42197;BMP280;27866;48.146;17.098;2022-10-31T21:20:33;100225.88;;;15.69
42197;BMP280;27866;48.146;17.098;2022-10-31T21:24:45;100225.03;;;15.69
42197;BMP280;27866;48.146;17.098;2022-10-31T21:28:57;100228.25;;;15.62
42197;BMP280;27866;48.146;17.098;2022-10-31T21:33:08;100218.53;;;15.53
42197;BMP280;27866;48.146;17.098;2022-10-31T21:37:19;100220.06;;;15.36
42197;BMP280;27866;48.146;17.098;2022-10-31T21:41:31;100222.25;;;15.40
42197;BMP280;27866;48.146;17.098;2022-10-31T21:45:42;100223.91;;;15.51
42197;BMP280;27866;48.146;17.098;2022-10-31T21:49:53;100223.81;;;15.42
42197;BMP280;27866;48.146;17.098;2022-10-31T21:54:04;100234.28;;;15.32
42197;BMP280;27866;48.146;17.098;2022-10-31T21:58:34;100224.50;;;15.44
42197;BMP280;27866;48.146;17.098;2022-10-31T22:02:45;100219.03;;;15.58
42197;BMP280;27866;48.146;17.098;2022-10-31T22:06:56;100214.25;;;15.63
42197;BMP280;27866;48.146;17.098;2022-10-31T22:11:14;100211.91;;;15.49
42197;BMP280;27866;48.146;17.098;2022-10-31T22:15:25;100214.53;;;15.49
42197;BMP280;27866;48.146;17.098;2022-10-31T22:19:36;100208.19;;;15.32
42197;BMP280;27866;48.146;17.098;2022-10-31T22:23:56;100214.91;;;15.45
42197;BMP280;27866;48.146;17.098;2022-10-31T22:28:07;100207.22;;;15.33
42197;BMP280;27866;48.146;17.098;2022-10-31T22:32:18;100192.06;;;15.27
42197;BMP280;27866;48.146;17.098;2022-10-31T22:36:31;100192.44;;;15.22
42197;BMP280;27866;48.146;17.098;2022-10-31T22:40:42;100201.78;;;15.25
42197;BMP280;27866;48.146;17.098;2022-10-31T22:44:53;100189.44;;;15.37
42197;BMP280;27866;48.146;17.098;2022-10-31T22:49:11;100191.56;;;15.43
42197;BMP280;27866;48.146;17.098;2022-10-31T22:53:24;100186.34;;;15.43
42197;BMP280;27866;48.146;17.098;2022-10-31T22:57:35;100184.03;;;15.50
42197;BMP280;27866;48.146;17.098;2022-10-31T23:01:46;100175.78;;;15.34
42197;BMP280;27866;48.146;17.098;2022-10-31T23:06:00;100170.34;;;15.26
42197;BMP280;27866;48.146;17.098;2022-10-31T23:10:12;100173.34;;;15.22
42197;BMP280;27866;48.146;17.098;2022-10-31T23:14:23;100191.63;;;15.22
42197;BMP280;27866;48.146;17.098;2022-10-31T23:18:35;100175.00;;;15.23
42197;BMP280;27866;48.146;17.098;2022-10-31T23:22:46;100171.44;;;15.24
42197;BMP280;27866;48.146;17.098;2022-10-31T23:26:59;100164.09;;;15.18
42197;BMP280;27866;48.146;17.098;2022-10-31T23:31:19;100159.03;;;15.17
42197;BMP280;27866;48.146;17.098;2022-10-31T23:35:30;100159.50;;;15.11
42197;BMP280;27866;48.146;17.098;2022-10-31T23:39:41;100142.66;;;15.15
42197;BMP280;27866;48.146;17.098;2022-10-31T23:43:52;100146.22;;;15.14
42197;BMP280;27866;48.146;17.098;2022-10-31T23:48:04;100152.88;;;15.07
42197;BMP280;27866;48.146;17.098;2022-10-31T23:52:15;100139.72;;;15.08
42197;BMP280;27866;48.146;17.098;2022-10-31T23:56:26;100137.94;;;15.09
